sensor_id;sensor_type;location;lat;lon;timestamp;P1;durP1;ratioP1;P2;durP2;ratioP2
22969;SDS011;11651;52.136;5.572;2022-07-01T01:04:14;17.00;;;15.20;;
22969;SDS011;11651;52.136;5.572;2022-07-01T01:10:30;17.95;;;16.13;;
22969;SDS011;11651;52.136;5.572;2022-07-01T01:16:28;21.20;;;18.90;;
22969;SDS011;11651;52.136;5.572;2022-07-01T02:06:55;33.42;;;29.27;;
22969;SDS011;11651;52.136;5.572;2022-07-01T02:13:04;33.78;;;30.23;;
22969;SDS011;11651;52.136;5.572;2022-07-01T02:18:53;33.63;;;30.00;;
22969;SDS011;11651;52.136;5.572;2022-07-01T02:21:50;35.13;;;31.30;;
22969;SDS011;11651;52.136;5.572;2022-07-01T02:24:39;32.47;;;29.08;;
22969;SDS011;11651;52.136;5.572;2022-07-01T02:33:39;33.28;;;28.92;;
22969;SDS011;11651;52.136;5.572;2022-07-01T02:36:10;32.15;;;28.63;;
22969;SDS011;11651;52.136;5.572;2022-07-01T02:38:53;34.25;;;30.38;;
22969;SDS011;11651;52.136;5.572;2022-07-01T02:41:50;32.15;;;28.17;;
22969;SDS011;11651;52.136;5.572;2022-07-01T02:44:44;34.42;;;30.15;;
22969;SDS011;11651;52.136;5.572;2022-07-01T02:47:13;32.72;;;29.30;;
22969;SDS011;11651;52.136;5.572;2022-07-01T02:49:38;30.65;;;27.38;;
22969;SDS011;11651;52.136;5.572;2022-07-01T02:52:04;37.20;;;31.65;;
22969;SDS011;11651;52.136;5.572;2022-07-01T02:54:33;33.88;;;29.65;;
22969;SDS011;11651;52.136;5.572;2022-07-01T02:56:58;38.45;;;32.13;;
22969;SDS011;11651;52.136;5.572;2022-07-01T02:59:24;38.55;;;33.08;;
22969;SDS011;11651;52.136;5.572;2022-07-01T03:01:50;39.35;;;32.50;;
22969;SDS011;11651;52.136;5.572;2022-07-01T03:04:16;36.47;;;32.42;;
22969;SDS011;11651;52.136;5.572;2022-07-01T03:06:41;41.90;;;34.35;;
22969;SDS011;11651;52.136;5.572;2022-07-01T03:09:07;34.58;;;30.80;;
22969;SDS011;11651;52.136;5.572;2022-07-01T03:11:35;39.17;;;33.08;;
22969;SDS011;11651;52.136;5.572;2022-07-01T03:14:03;37.50;;;31.75;;
22969;SDS011;11651;52.136;5.572;2022-07-01T03:16:35;36.90;;;31.98;;
22969;SDS011;11651;52.136;5.572;2022-07-01T03:19:00;37.80;;;33.03;;
22969;SDS011;11651;52.136;5.572;2022-07-01T03:21:31;41.22;;;31.08;;
22969;SDS011;11651;52.136;5.572;2022-07-01T03:24:00;37.08;;;32.45;;
22969;SDS011;11651;52.136;5.572;2022-07-01T03:26:31;35.67;;;30.10;;
22969;SDS011;11651;52.136;5.572;2022-07-01T03:28:59;37.10;;;32.75;;
22969;SDS011;11651;52.136;5.572;2022-07-01T03:31:30;36.75;;;30.52;;
22969;SDS011;11651;52.136;5.572;2022-07-01T03:34:04;36.17;;;30.85;;
22969;SDS011;11651;52.136;5.572;2022-07-01T03:36:30;38.67;;;32.67;;
22969;SDS011;11651;52.136;5.572;2022-07-01T03:38:58;40.80;;;32.03;;
22969;SDS011;11651;52.136;5.572;2022-07-01T03:41:29;37.70;;;32.08;;
22969;SDS011;11651;52.136;5.572;2022-07-01T03:43:57;38.55;;;30.98;;
22969;SDS011;11651;52.136;5.572;2022-07-01T03:46:25;40.80;;;31.15;;
22969;SDS011;11651;52.136;5.572;2022-07-01T03:48:55;37.85;;;31.90;;
22969;SDS011;11651;52.136;5.572;2022-07-01T03:51:21;41.47;;;32.58;;
22969;SDS011;11651;52.136;5.572;2022-07-01T03:53:47;41.85;;;31.77;;
22969;SDS011;11651;52.136;5.572;2022-07-01T03:56:33;39.63;;;31.33;;
22969;SDS011;11651;52.136;5.572;2022-07-01T03:58:59;40.03;;;31.55;;
22969;SDS011;11651;52.136;5.572;2022-07-01T04:01:27;40.58;;;32.60;;
22969;SDS011;11651;52.136;5.572;2022-07-01T04:03:53;39.08;;;30.90;;
22969;SDS011;11651;52.136;5.572;2022-07-01T04:06:22;40.72;;;31.90;;
22969;SDS011;11651;52.136;5.572;2022-07-01T04:08:48;39.53;;;30.77;;
22969;SDS011;11651;52.136;5.572;2022-07-01T04:11:14;38.70;;;30.95;;
22969;SDS011;11651;52.136;5.572;2022-07-01T04:13:41;41.00;;;30.70;;
22969;SDS011;11651;52.136;5.572;2022-07-01T04:16:23;41.65;;;30.55;;
22969;SDS011;11651;52.136;5.572;2022-07-01T04:18:51;39.63;;;30.30;;
22969;SDS011;11651;52.136;5.572;2022-07-01T04:21:20;38.72;;;29.33;;
22969;SDS011;11651;52.136;5.572;2022-07-01T04:24:04;42.72;;;30.10;;
22969;SDS011;11651;52.136;5.572;2022-07-01T04:26:31;36.70;;;29.45;;
22969;SDS011;11651;52.136;5.572;2022-07-01T04:28:57;39.65;;;30.88;;
22969;SDS011;11651;52.136;5.572;2022-07-01T04:31:25;44.28;;;31.30;;
22969;SDS011;11651;52.136;5.572;2022-07-01T04:33:51;40.00;;;29.55;;
22969;SDS011;11651;52.136;5.572;2022-07-01T04:36:17;42.17;;;30.17;;
22969;SDS011;11651;52.136;5.572;2022-07-01T04:38:43;41.65;;;29.75;;
22969;SDS011;11651;52.136;5.572;2022-07-01T04:41:11;37.80;;;28.52;;
22969;SDS011;11651;52.136;5.572;2022-07-01T04:43:56;38.05;;;28.45;;
22969;SDS011;11651;52.136;5.572;2022-07-01T04:46:22;37.53;;;27.58;;
22969;SDS011;11651;52.136;5.572;2022-07-01T04:48:50;36.97;;;27.40;;
22969;SDS011;11651;52.136;5.572;2022-07-01T04:51:16;39.22;;;29.73;;
22969;SDS011;11651;52.136;5.572;2022-07-01T04:53:41;36.72;;;26.90;;
22969;SDS011;11651;52.136;5.572;2022-07-01T04:56:07;36.63;;;27.15;;
22969;SDS011;11651;52.136;5.572;2022-07-01T04:58:33;35.60;;;26.98;;
22969;SDS011;11651;52.136;5.572;2022-07-01T05:01:01;36.20;;;28.08;;
22969;SDS011;11651;52.136;5.572;2022-07-01T05:03:30;35.75;;;27.15;;
22969;SDS011;11651;52.136;5.572;2022-07-01T05:06:06;36.97;;;27.38;;
22969;SDS011;11651;52.136;5.572;2022-07-01T05:08:35;37.78;;;27.35;;
22969;SDS011;11651;52.136;5.572;2022-07-01T05:11:01;36.65;;;27.23;;
22969;SDS011;11651;52.136;5.572;2022-07-01T05:13:31;35.03;;;26.92;;
22969;SDS011;11651;52.136;5.572;2022-07-01T05:15:59;33.22;;;25.42;;
22969;SDS011;11651;52.136;5.572;2022-07-01T05:18:25;33.85;;;25.85;;
22969;SDS011;11651;52.136;5.572;2022-07-01T05:21:12;38.47;;;26.65;;
22969;SDS011;11651;52.136;5.572;2022-07-01T05:23:59;36.28;;;25.40;;
22969;SDS011;11651;52.136;5.572;2022-07-01T05:26:28;33.70;;;25.55;;
22969;SDS011;11651;52.136;5.572;2022-07-01T05:34:57;27.27;;;21.58;;
22969;SDS011;11651;52.136;5.572;2022-07-01T05:37:22;34.28;;;24.00;;
22969;SDS011;11651;52.136;5.572;2022-07-01T05:39:48;35.75;;;25.85;;
22969;SDS011;11651;52.136;5.572;2022-07-01T05:42:24;32.20;;;24.40;;
22969;SDS011;11651;52.136;5.572;2022-07-01T05:44:53;35.83;;;26.00;;
22969;SDS011;11651;52.136;5.572;2022-07-01T05:47:18;33.13;;;24.35;;
22969;SDS011;11651;52.136;5.572;2022-07-01T05:49:44;33.90;;;25.88;;
22969;SDS011;11651;52.136;5.572;2022-07-01T05:52:13;32.35;;;25.88;;
22969;SDS011;11651;52.136;5.572;2022-07-01T05:54:58;36.05;;;26.98;;
22969;SDS011;11651;52.136;5.572;2022-07-01T06:14:06;32.33;;;25.70;;
22969;SDS011;11651;52.136;5.572;2022-07-01T06:17:11;32.42;;;24.33;;
22969;SDS011;11651;52.136;5.572;2022-07-01T09:38:32;5.57;;;1.60;;
22969;SDS011;11651;52.136;5.572;2022-07-01T09:44:26;8.07;;;2.50;;
22969;SDS011;11651;52.136;5.572;2022-07-01T11:54:21;2.60;;;0.80;;
22969;SDS011;11651;52.136;5.572;2022-07-01T15:22:51;4.72;;;1.30;;
22969;SDS011;11651;52.136;5.572;2022-07-01T15:25:17;3.25;;;1.20;;
22969;SDS011;11651;52.136;5.572;2022-07-01T18:06:49;4.03;;;0.90;;
22969;SDS011;11651;52.136;5.572;2022-07-01T18:09:14;2.05;;;0.80;;
22969;SDS011;11651;52.136;5.572;2022-07-01T20:21:54;5.15;;;1.55;;
22969;SDS011;11651;52.136;5.572;2022-07-01T20:24:20;2.92;;;1.75;;
22969;SDS011;11651;52.136;5.572;2022-07-01T20:26:52;7.20;;;1.90;;
22969;SDS011;11651;52.136;5.572;2022-07-01T20:29:21;3.00;;;1.63;;
22969;SDS011;11651;52.136;5.572;2022-07-01T20:31:55;3.55;;;1.67;;
22969;SDS011;11651;52.136;5.572;2022-07-01T20:34:24;2.03;;;1.20;;
22969;SDS011;11651;52.136;5.572;2022-07-01T20:37:00;4.00;;;1.60;;
22969;SDS011;11651;52.136;5.572;2022-07-01T20:39:41;4.93;;;1.38;;
22969;SDS011;11651;52.136;5.572;2022-07-01T21:02:19;3.10;;;1.40;;
22969;SDS011;11651;52.136;5.572;2022-07-01T21:04:48;3.40;;;1.60;;
22969;SDS011;11651;52.136;5.572;2022-07-01T21:07:28;2.85;;;1.50;;
22969;SDS011;11651;52.136;5.572;2022-07-01T21:10:10;3.28;;;1.90;;
22969;SDS011;11651;52.136;5.572;2022-07-01T21:12:41;5.20;;;1.77;;
22969;SDS011;11651;52.136;5.572;2022-07-01T21:15:55;7.43;;;2.28;;
22969;SDS011;11651;52.136;5.572;2022-07-01T21:18:22;4.97;;;2.80;;
22969;SDS011;11651;52.136;5.572;2022-07-01T21:20:50;4.53;;;2.38;;
22969;SDS011;11651;52.136;5.572;2022-07-01T21:23:18;5.15;;;2.88;;
22969;SDS011;11651;52.136;5.572;2022-07-01T21:25:47;6.22;;;2.53;;
22969;SDS011;11651;52.136;5.572;2022-07-01T21:28:13;6.18;;;2.78;;
22969;SDS011;11651;52.136;5.572;2022-07-01T21:30:39;3.92;;;2.50;;
22969;SDS011;11651;52.136;5.572;2022-07-01T21:33:15;4.28;;;2.60;;
22969;SDS011;11651;52.136;5.572;2022-07-01T21:36:02;3.72;;;2.35;;
22969;SDS011;11651;52.136;5.572;2022-07-01T21:55:56;4.22;;;2.15;;
22969;SDS011;11651;52.136;5.572;2022-07-01T21:58:31;3.03;;;2.40;;
22969;SDS011;11651;52.136;5.572;2022-07-01T22:04:22;6.22;;;2.20;;
22969;SDS011;11651;52.136;5.572;2022-07-01T22:07:13;4.40;;;2.30;;
22969;SDS011;11651;52.136;5.572;2022-07-01T22:10:22;5.35;;;2.45;;
22969;SDS011;11651;52.136;5.572;2022-07-01T22:12:56;4.53;;;2.47;;
22969;SDS011;11651;52.136;5.572;2022-07-01T22:22:39;2.88;;;2.40;;
22969;SDS011;11651;52.136;5.572;2022-07-01T22:25:29;7.07;;;2.92;;
22969;SDS011;11651;52.136;5.572;2022-07-01T22:28:58;4.13;;;2.70;;
22969;SDS011;11651;52.136;5.572;2022-07-01T22:35:26;5.47;;;3.47;;
22969;SDS011;11651;52.136;5.572;2022-07-01T22:38:12;5.68;;;4.00;;
22969;SDS011;11651;52.136;5.572;2022-07-01T22:40:40;5.70;;;3.13;;
22969;SDS011;11651;52.136;5.572;2022-07-01T22:43:13;5.00;;;3.30;;
22969;SDS011;11651;52.136;5.572;2022-07-01T22:45:46;5.78;;;3.22;;
22969;SDS011;11651;52.136;5.572;2022-07-01T22:48:44;5.93;;;3.63;;
22969;SDS011;11651;52.136;5.572;2022-07-01T22:51:30;5.18;;;3.50;;
22969;SDS011;11651;52.136;5.572;2022-07-01T23:16:05;4.68;;;3.90;;
22969;SDS011;11651;52.136;5.572;2022-07-01T23:22:50;4.15;;;3.80;;
22969;SDS011;11651;52.136;5.572;2022-07-01T23:25:59;6.72;;;4.22;;
22969;SDS011;11651;52.136;5.572;2022-07-01T23:41:45;5.90;;;3.92;;
22969;SDS011;11651;52.136;5.572;2022-07-01T23:48:24;5.05;;;3.97;;
22969;SDS011;11651;52.136;5.572;2022-07-01T23:51:05;6.18;;;4.65;;
22969;SDS011;11651;52.136;5.572;2022-07-01T23:53:37;5.15;;;4.30;;
22969;SDS011;11651;52.136;5.572;2022-07-01T23:56:09;4.45;;;4.05;;
22969;SDS011;11651;52.136;5.572;2022-07-01T23:58:52;8.88;;;4.65;;
